Time;durP1;ratioP1;P1;durP2;ratioP2;P2;SDS_P1;SDS_P2;PMS_P1;PMS_P2;Temp;Humidity;BMP_temperature;BMP_pressure;BME280_temperature;BME280_humidity;BME280_pressure;Samples;Min_cycle;Max_cycle;Signal;HPM_P1;HPM_P2
2021/01/07 00:01:26;;;;;;;39.30;18.60;;;;;;;10.75;76.04;100570.53;1692549;84;21288;-67
2021/01/07 00:03:54;;;;;;;40.03;18.77;;;;;;;10.75;75.99;100564.81;1679804;85;21328;-67
2021/01/07 00:06:22;;;;;;;34.15;19.37;;;;;;;10.72;75.98;100572.73;1703701;82;21143;-70
2021/01/07 00:08:52;;;;;;;47.90;20.50;;;;;;;10.74;75.92;100580.63;1707094;83;21156;-70
2021/01/07 00:11:20;;;;;;;36.65;18.75;;;;;;;10.77;75.76;100588.05;1706036;82;21197;-70
2021/01/07 00:13:48;;;;;;;39.50;19.90;;;;;;;10.83;75.60;100595.00;1703970;83;21481;-67
2021/01/07 00:16:16;;;;;;;35.28;18.45;;;;;;;10.83;75.55;100591.94;1695546;84;21672;-69
2021/01/07 00:18:43;;;;;;;35.13;18.50;;;;;;;10.80;75.49;100585.39;1703865;82;21603;-69
2021/01/07 00:21:13;;;;;;;37.75;18.55;;;;;;;10.78;75.67;100590.25;1679590;84;21191;-67
2021/01/07 00:23:40;;;;;;;46.25;20.88;;;;;;;10.76;75.65;100584.12;1680551;84;21539;-69
2021/01/07 00:26:08;;;;;;;34.25;18.25;;;;;;;10.75;75.73;100590.28;1689166;84;21624;-69
2021/01/07 00:28:35;;;;;;;39.50;18.67;;;;;;;10.76;75.75;100586.30;1685635;83;21155;-69
2021/01/07 00:31:03;;;;;;;38.73;20.35;;;;;;;10.77;75.72;100588.51;1679522;84;21618;-70
2021/01/07 00:33:30;;;;;;;42.60;21.42;;;;;;;10.80;75.62;100584.07;1697845;84;21575;-67
2021/01/07 00:35:58;;;;;;;37.93;20.97;;;;;;;10.79;75.59;100577.52;1707842;83;21183;-67
2021/01/07 00:38:26;;;;;;;43.50;20.60;;;;;;;10.82;75.55;100576.14;1661401;86;21165;-70
2021/01/07 00:40:53;;;;;;;39.00;19.35;;;;;;;10.81;75.54;100579.69;1707930;83;21623;-67
2021/01/07 00:43:20;;;;;;;35.52;18.27;;;;;;;10.81;75.54;100587.13;1707098;83;21471;-67
2021/01/07 00:45:48;;;;;;;38.92;21.07;;;;;;;10.81;75.56;100587.59;1707997;84;21584;-69
2021/01/07 00:48:16;;;;;;;42.53;21.10;;;;;;;10.83;75.52;100585.78;1708198;84;21155;-70
2021/01/07 00:50:44;;;;;;;38.08;19.07;;;;;;;10.88;75.35;100572.59;1701753;82;21483;-70
2021/01/07 00:53:12;;;;;;;41.20;19.67;;;;;;;10.90;75.21;100558.97;1689009;84;21122;-69
2021/01/07 00:55:40;;;;;;;38.17;19.25;;;;;;;10.84;75.39;100557.25;1664302;86;21667;-67
2021/01/07 00:58:08;;;;;;;40.60;20.32;;;;;;;10.85;75.34;100563.84;1649599;87;21651;-70
2021/01/07 01:00:36;;;;;;;44.45;19.52;;;;;;;10.81;75.57;100563.89;1652092;86;21383;-70
2021/01/07 01:03:04;;;;;;;40.75;19.87;;;;;;;10.76;75.72;100561.29;1707898;84;21622;-67
2021/01/07 01:05:32;;;;;;;38.70;18.15;;;;;;;10.80;75.70;100559.52;1664230;85;21190;-70
2021/01/07 01:08:00;;;;;;;38.02;18.50;;;;;;;10.82;75.73;100553.33;1649712;87;21622;-70
2021/01/07 01:10:27;;;;;;;45.65;21.00;;;;;;;10.85;75.58;100548.46;1641314;85;21182;-67
2021/01/07 01:12:55;;;;;;;38.92;18.87;;;;;;;10.86;75.56;100546.26;1707865;84;21169;-70
2021/01/07 01:15:24;;;;;;;42.70;19.65;;;;;;;10.85;75.54;100528.28;1682735;83;21135;-69
2021/01/07 01:17:51;;;;;;;45.90;21.33;;;;;;;10.95;75.21;100526.88;1680128;84;21107;-67
2021/01/07 01:20:19;;;;;;;44.65;20.20;;;;;;;10.94;75.11;100524.67;1679788;84;21610;-67
2021/01/07 01:22:46;;;;;;;39.67;19.75;;;;;;;10.93;75.05;100519.44;1691065;82;21555;-67
2021/01/07 01:25:15;;;;;;;40.73;21.62;;;;;;;10.90;75.14;100516.83;1679523;84;21151;-67
2021/01/07 01:27:44;;;;;;;40.63;20.32;;;;;;;10.89;75.10;100510.68;1692565;84;21167;-67
2021/01/07 01:30:14;;;;;;;38.90;20.68;;;;;;;10.86;75.16;100500.17;1708343;82;21585;-69
2021/01/07 01:32:43;;;;;;;38.70;20.97;;;;;;;10.84;75.15;100499.32;1654111;85;21206;-70
2021/01/07 01:35:12;;;;;;;43.42;21.62;;;;;;;10.79;75.34;100495.90;1679583;84;21554;-67
2021/01/07 01:37:41;;;;;;;43.52;22.62;;;;;;;10.77;75.45;100491.09;1701635;84;21610;-67
2021/01/07 01:40:10;;;;;;;38.60;20.75;;;;;;;10.82;75.24;100480.92;1708283;83;21109;-70
2021/01/07 01:42:38;;;;;;;38.90;20.08;;;;;;;10.78;75.30;100467.36;1647646;85;21541;-70
2021/01/07 01:45:07;;;;;;;49.53;21.55;;;;;;;10.74;75.42;100461.70;1632924;86;21224;-71
2021/01/07 01:47:34;;;;;;;43.48;20.72;;;;;;;10.75;75.40;100458.19;1701681;84;21155;-67
2021/01/07 01:50:06;;;;;;;32.50;18.43;;;;;;;10.73;75.51;100456.48;1685433;84;21302;-67
2021/01/07 01:52:35;;;;;;;37.60;20.23;;;;;;;10.77;75.47;100460.36;1673540;85;21138;-67
2021/01/07 01:55:03;;;;;;;42.70;20.02;;;;;;;10.90;75.05;100456.27;1685371;83;21166;-70
2021/01/07 01:57:32;;;;;;;36.85;18.55;;;;;;;10.89;75.11;100459.33;1686729;84;21654;-71
2021/01/07 02:00:00;;;;;;;44.25;19.95;;;;;;;10.90;75.09;100461.07;1666075;85;21167;-67
2021/01/07 02:02:27;;;;;;;36.17;18.27;;;;;;;10.91;75.05;100458.87;1701375;84;21214;-68
2021/01/07 02:04:55;;;;;;;41.70;18.45;;;;;;;10.93;74.99;100452.28;1684918;83;21122;-67
2021/01/07 02:07:24;;;;;;;38.95;18.07;;;;;;;10.93;74.99;100443.06;1701402;84;21730;-71
2021/01/07 02:09:52;;;;;;;42.60;19.52;;;;;;;10.91;75.08;100444.38;1682278;84;21317;-71
2021/01/07 02:12:21;;;;;;;46.45;20.55;;;;;;;10.92;75.09;100440.86;1674224;84;21230;-67
2021/01/07 02:14:48;;;;;;;44.27;20.23;;;;;;;10.90;75.31;100433.42;1701574;83;21631;-67
2021/01/07 02:17:16;;;;;;;37.13;17.42;;;;;;;10.81;75.64;100434.42;1700949;84;21167;-67
2021/01/07 02:19:44;;;;;;;46.55;20.70;;;;;;;10.81;75.74;100436.20;1675491;84;21260;-67
2021/01/07 02:22:13;;;;;;;38.40;18.35;;;;;;;10.91;75.43;100429.05;1668898;85;21545;-67
2021/01/07 02:24:40;;;;;;;35.48;17.80;;;;;;;10.95;75.26;100423.70;1701667;84;21162;-69
2021/01/07 02:27:10;;;;;;;44.00;18.95;;;;;;;10.90;75.51;100416.30;1679183;85;21166;-70
2021/01/07 02:29:39;;;;;;;39.40;18.90;;;;;;;10.92;75.48;100422.42;1673322;84;21163;-67
2021/01/07 02:32:08;;;;;;;38.90;17.90;;;;;;;10.95;75.38;100409.22;1693001;84;21150;-69
2021/01/07 02:34:36;;;;;;;36.23;18.57;;;;;;;10.91;75.57;100412.78;1701745;83;21131;-67
2021/01/07 02:37:06;;;;;;;36.33;18.00;;;;;;;10.91;75.51;100407.52;1669955;84;21645;-67
2021/01/07 02:39:33;;;;;;;34.63;17.17;;;;;;;10.91;75.51;100417.20;1673529;84;21637;-67
2021/01/07 02:42:01;;;;;;;31.05;15.63;;;;;;;10.89;75.62;100416.34;1704076;83;21313;-70
2021/01/07 02:44:29;;;;;;;33.70;17.75;;;;;;;10.77;76.20;100409.48;1706224;82;21572;-67
2021/01/07 02:46:56;;;;;;;33.45;15.13;;;;;;;10.77;76.14;100406.38;1683518;84;21611;-67
2021/01/07 02:49:24;;;;;;;36.83;18.65;;;;;;;10.88;75.86;100397.02;1687627;84;21112;-67
2021/01/07 02:51:52;;;;;;;34.10;16.80;;;;;;;10.89;75.74;100402.72;1708398;84;21219;-68
2021/01/07 02:54:20;;;;;;;31.73;17.57;;;;;;;10.85;75.97;100396.63;1702977;82;21586;-70
2021/01/07 02:56:48;;;;;;;38.67;17.98;;;;;;;10.84;76.10;100394.89;1679616;84;21202;-70
2021/01/07 02:59:16;;;;;;;39.53;19.02;;;;;;;10.86;76.01;100394.42;1696756;84;21120;-71
2021/01/07 03:01:44;;;;;;;40.17;19.17;;;;;;;10.91;75.88;100382.96;1708265;83;21590;-67
2021/01/07 03:04:11;;;;;;;39.63;18.50;;;;;;;10.91;75.95;100381.64;1650738;85;21159;-70
2021/01/07 03:06:39;;;;;;;37.67;17.75;;;;;;;10.85;76.25;100379.95;1679559;84;21679;-68
2021/01/07 03:09:07;;;;;;;39.42;17.92;;;;;;;10.81;76.51;100372.55;1680479;84;21713;-67
2021/01/07 03:11:35;;;;;;;35.45;17.48;;;;;;;10.86;76.33;100371.16;1681091;82;21183;-67
2021/01/07 03:14:03;;;;;;;35.85;16.90;;;;;;;10.88;76.27;100383.00;1681149;84;21575;-67
2021/01/07 03:16:31;;;;;;;38.63;17.48;;;;;;;10.90;76.30;100386.02;1702853;84;21131;-67
2021/01/07 03:18:58;;;;;;;30.82;15.90;;;;;;;10.92;76.21;100375.03;1708399;84;21159;-67
2021/01/07 03:21:26;;;;;;;37.28;16.95;;;;;;;11.06;75.80;100360.34;1705988;82;21629;-70
2021/01/07 03:23:54;;;;;;;35.83;16.23;;;;;;;11.00;76.01;100370.53;1679705;85;21887;-67
2021/01/07 03:26:21;;;;;;;34.40;16.87;;;;;;;10.99;75.97;100370.10;1693204;84;21312;-67
2021/01/07 03:28:49;;;;;;;30.00;16.70;;;;;;;10.98;76.04;100363.09;1736301;82;21148;-70
2021/01/07 03:31:19;;;;;;;33.70;16.85;;;;;;;10.95;76.23;100366.23;1704679;82;21182;-70
2021/01/07 03:33:47;;;;;;;35.73;16.55;;;;;;;10.99;76.03;100351.67;1708070;84;21213;-70
2021/01/07 03:36:14;;;;;;;34.48;17.60;;;;;;;10.98;76.04;100353.88;1663980;85;21493;-67
2021/01/07 03:38:42;;;;;;;26.17;13.90;;;;;;;10.98;76.12;100354.34;1707958;84;21175;-67
2021/01/07 03:41:09;;;;;;;36.83;17.23;;;;;;;10.98;76.17;100345.97;1688217;82;21199;-71
2021/01/07 03:43:37;;;;;;;29.00;15.60;;;;;;;10.97;76.17;100331.06;1681580;84;21163;-67
2021/01/07 03:46:05;;;;;;;38.98;18.07;;;;;;;10.99;76.14;100337.19;1708042;82;21180;-67
2021/01/07 03:48:32;;;;;;;31.97;17.12;;;;;;;11.03;76.01;100330.55;1706324;83;21139;-67
2021/01/07 03:51:00;;;;;;;30.20;14.90;;;;;;;11.03;76.04;100327.48;1699329;84;21588;-67
2021/01/07 03:53:28;;;;;;;40.23;17.12;;;;;;;11.05;76.00;100326.14;1707571;84;21611;-70
2021/01/07 03:55:55;;;;;;;35.60;17.32;;;;;;;11.06;75.96;100318.20;1708283;82;21181;-71
2021/01/07 03:58:23;;;;;;;39.15;16.35;;;;;;;11.05;76.01;100331.41;1705301;82;21577;-67
2021/01/07 04:00:51;;;;;;;34.08;15.95;;;;;;;11.08;75.91;100325.63;1664286;85;21166;-67
2021/01/07 04:03:18;;;;;;;28.87;14.60;;;;;;;11.09;75.87;100322.56;1646942;87;21632;-67
2021/01/07 04:05:46;;;;;;;32.03;16.50;;;;;;;11.13;75.78;100327.75;1707889;82;21111;-70
2021/01/07 04:08:14;;;;;;;35.68;15.72;;;;;;;11.12;75.87;100326.01;1690668;82;21151;-71
2021/01/07 04:10:42;;;;;;;34.98;15.43;;;;;;;11.17;75.70;100306.20;1707510;84;21593;-67
2021/01/07 04:13:09;;;;;;;37.20;14.95;;;;;;;11.18;75.66;100311.00;1707350;84;21614;-67
2021/01/07 04:15:37;;;;;;;31.70;15.20;;;;;;;11.20;75.61;100301.31;1706423;82;21191;-71
2021/01/07 04:18:05;;;;;;;34.73;16.02;;;;;;;11.19;75.72;100307.48;1699059;84;21610;-71
2021/01/07 04:20:32;;;;;;;30.30;14.73;;;;;;;11.21;75.68;100317.55;1707077;82;21578;-67
2021/01/07 04:23:00;;;;;;;34.73;15.35;;;;;;;11.18;75.83;100303.98;1708102;84;21619;-67
2021/01/07 04:25:27;;;;;;;25.27;14.75;;;;;;;11.18;75.86;100307.94;1702442;82;21305;-71
2021/01/07 04:27:55;;;;;;;31.62;16.97;;;;;;;11.14;76.09;100308.88;1688296;84;21599;-70
2021/01/07 04:30:22;;;;;;;36.95;16.62;;;;;;;11.11;76.18;100303.66;1707315;82;21164;-68
2021/01/07 04:32:50;;;;;;;31.50;16.25;;;;;;;11.11;76.25;100307.15;1708016;83;21596;-67
2021/01/07 04:35:18;;;;;;;31.52;15.10;;;;;;;11.14;76.22;100309.73;1651025;85;21642;-70
2021/01/07 04:37:45;;;;;;;38.33;16.27;;;;;;;11.15;76.21;100307.52;1679909;85;21598;-70
2021/01/07 04:40:14;;;;;;;40.25;17.57;;;;;;;11.18;76.17;100307.05;1703524;82;21309;-70
2021/01/07 04:42:42;;;;;;;35.40;16.42;;;;;;;11.16;76.29;100305.31;1707803;83;21177;-67
2021/01/07 04:45:11;;;;;;;30.88;15.13;;;;;;;11.19;76.36;100303.09;1643085;86;21619;-70
2021/01/07 04:47:41;;;;;;;29.50;15.00;;;;;;;11.25;76.15;100305.64;1683975;84;21708;-67
2021/01/07 04:50:10;;;;;;;31.70;15.58;;;;;;;11.30;76.05;100297.64;1708202;83;21169;-70
2021/01/07 04:52:39;;;;;;;23.42;14.83;;;;;;;11.33;76.03;100296.70;1661397;85;21123;-67
2021/01/07 04:55:09;;;;;;;29.02;15.15;;;;;;;11.33;75.94;100292.33;1660613;85;21135;-68
2021/01/07 04:57:37;;;;;;;36.50;16.42;;;;;;;11.35;75.97;100294.48;1694176;84;21144;-71
2021/01/07 05:00:06;;;;;;;29.45;17.25;;;;;;;11.42;75.77;100296.12;1707921;82;21757;-70
2021/01/07 05:02:34;;;;;;;30.10;16.62;;;;;;;11.42;75.65;100289.53;1654636;85;21203;-70
2021/01/07 05:05:05;;;;;;;34.03;16.10;;;;;;;11.41;75.72;100296.14;1679833;84;21610;-67
2021/01/07 05:07:38;;;;;;;28.30;15.65;;;;;;;11.36;75.87;100291.39;1703391;84;21209;-69
2021/01/07 05:10:08;;;;;;;26.12;13.88;;;;;;;11.34;75.92;100290.54;1707897;84;21193;-68
2021/01/07 05:12:36;;;;;;;26.42;14.43;;;;;;;11.34;75.89;100292.75;1685588;84;21388;-68
2021/01/07 05:15:06;;;;;;;34.90;15.40;;;;;;;11.36;75.85;100286.12;1703351;84;21159;-69
2021/01/07 05:17:37;;;;;;;32.75;15.95;;;;;;;11.38;75.81;100285.21;1705913;84;21120;-67
2021/01/07 05:20:11;;;;;;;25.43;14.58;;;;;;;11.36;75.94;100287.44;1703572;82;21634;-69
2021/01/07 05:22:39;;;;;;;30.97;13.30;;;;;;;11.40;75.86;100283.42;1679628;85;21211;-69
2021/01/07 05:25:14;;;;;;;32.55;15.38;;;;;;;11.43;75.83;100285.13;1695593;82;21626;-70
2021/01/07 05:27:42;;;;;;;25.20;14.50;;;;;;;11.43;75.87;100278.09;1707992;84;21149;-68
2021/01/07 05:30:12;;;;;;;28.25;14.07;;;;;;;11.44;75.85;100273.25;1674614;84;21612;-68
2021/01/07 05:32:42;;;;;;;33.50;15.80;;;;;;;11.48;75.80;100258.70;1679704;85;21274;-68
2021/01/07 05:35:21;;;;;;;28.35;15.30;;;;;;;11.44;75.85;100253.48;1706530;82;21610;-71
2021/01/07 05:37:48;;;;;;;25.55;14.70;;;;;;;11.47;75.79;100255.19;1707712;82;21191;-68
2021/01/07 05:40:16;;;;;;;33.55;18.27;;;;;;;11.44;75.79;100253.48;1692017;83;21586;-68
2021/01/07 05:42:46;;;;;;;27.02;17.20;;;;;;;11.50;75.63;100265.67;1698641;83;21168;-68
2021/01/07 05:45:16;;;;;;;31.57;16.97;;;;;;;11.48;75.67;100262.66;1689186;84;21552;-71
2021/01/07 05:47:48;;;;;;;38.10;17.42;;;;;;;11.49;75.68;100257.34;1680774;84;21149;-68
2021/01/07 05:50:17;;;;;;;32.53;16.17;;;;;;;11.41;75.88;100253.54;1684466;84;21143;-72
2021/01/07 05:52:48;;;;;;;32.35;16.70;;;;;;;11.43;75.87;100254.81;1649497;86;21699;-67
2021/01/07 05:55:17;;;;;;;28.92;16.00;;;;;;;11.47;75.73;100256.50;1648027;87;21220;-71
2021/01/07 05:57:45;;;;;;;36.25;16.90;;;;;;;11.47;75.77;100251.23;1665183;84;21200;-72
2021/01/07 06:00:15;;;;;;;34.30;16.20;;;;;;;11.48;75.84;100243.74;1673715;84;21604;-71
2021/01/07 06:02:44;;;;;;;38.67;18.05;;;;;;;11.47;75.92;100242.00;1702109;84;21187;-68
2021/01/07 06:05:14;;;;;;;28.75;16.85;;;;;;;11.48;75.91;100243.74;1671736;85;21225;-71
2021/01/07 06:07:41;;;;;;;30.70;16.50;;;;;;;11.51;75.82;100242.38;1626750;88;21163;-70
2021/01/07 06:10:12;;;;;;;35.98;18.60;;;;;;;11.51;75.81;100231.83;1620067;88;21679;-74
2021/01/07 06:12:40;;;;;;;29.73;18.80;;;;;;;11.50;75.80;100230.09;1602473;89;21361;-69
2021/01/07 06:15:12;;;;;;;34.53;17.37;;;;;;;11.54;75.72;100231.77;1610615;87;21521;-69
2021/01/07 06:17:40;;;;;;;35.38;17.10;;;;;;;11.55;75.60;100225.61;1638490;87;21254;-69
2021/01/07 06:20:19;;;;;;;28.70;15.43;;;;;;;11.50;75.71;100237.11;1611716;89;21642;-72
2021/01/07 06:22:52;;;;;;;28.15;15.20;;;;;;;11.48;75.70;100233.20;1618371;89;21164;-70
2021/01/07 06:25:22;;;;;;;31.05;16.35;;;;;;;11.51;75.62;100229.19;1653474;86;21607;-69
2021/01/07 06:27:51;;;;;;;34.75;15.75;;;;;;;11.47;75.72;100228.83;1649820;86;21644;-69
2021/01/07 06:30:24;;;;;;;34.70;16.57;;;;;;;11.52;75.56;100228.73;1674602;86;21651;-72
2021/01/07 06:33:05;;;;;;;28.55;15.00;;;;;;;11.47;75.71;100226.66;1676318;84;21604;-72
2021/01/07 06:35:39;;;;;;;22.75;12.80;;;;;;;11.50;75.53;100231.41;1689976;84;21825;-71
2021/01/07 06:38:07;;;;;;;23.85;14.20;;;;;;;11.48;75.95;100225.30;1673492;86;21141;-69
2021/01/07 06:40:42;;;;;;;29.72;15.03;;;;;;;11.40;75.86;100224.13;1675062;86;21176;-73
2021/01/07 06:43:19;;;;;;;30.45;15.23;;;;;;;11.33;76.17;100228.20;1689315;81;21586;-72
2021/01/07 06:45:51;;;;;;;29.95;15.08;;;;;;;11.32;76.21;100226.03;1708068;83;21598;-69
2021/01/07 06:48:34;;;;;;;28.65;13.88;;;;;;;11.33;76.21;100224.25;1679735;85;21201;-69
2021/01/07 06:51:04;;;;;;;22.32;13.10;;;;;;;11.37;76.04;100216.70;1684702;84;21541;-72
2021/01/07 06:53:36;;;;;;;29.35;13.45;;;;;;;11.37;76.08;100211.01;1707797;84;21475;-72
2021/01/07 06:56:17;;;;;;;24.30;13.95;;;;;;;11.41;75.93;100208.73;1706879;82;21137;-71
2021/01/07 06:58:46;;;;;;;27.40;13.25;;;;;;;11.45;75.83;100197.68;1664601;86;21198;-72
2021/01/07 07:01:18;;;;;;;32.25;14.60;;;;;;;11.44;75.77;100201.21;1647866;87;21150;-69
2021/01/07 07:03:52;;;;;;;23.55;13.95;;;;;;;11.41;75.97;100201.27;1708119;84;21211;-72
2021/01/07 07:06:25;;;;;;;23.40;12.68;;;;;;;11.53;75.52;100191.81;1707268;83;21167;-68
2021/01/07 07:08:52;;;;;;;27.02;14.65;;;;;;;11.49;75.73;100187.94;1708033;84;21179;-72
2021/01/07 07:11:31;;;;;;;25.77;14.58;;;;;;;11.58;75.60;100192.60;1707837;82;21187;-71
2021/01/07 07:14:02;;;;;;;28.23;13.53;;;;;;;11.64;75.50;100185.01;1707747;84;21143;-69
2021/01/07 07:16:34;;;;;;;24.95;14.40;;;;;;;11.63;75.60;100179.31;1707264;84;21151;-71
2021/01/07 07:19:01;;;;;;;27.50;13.13;;;;;;;11.57;75.85;100179.00;1708312;84;21554;-71
2021/01/07 07:21:29;;;;;;;22.07;12.65;;;;;;;11.55;76.02;100174.64;1708053;82;21105;-69
2021/01/07 07:24:08;;;;;;;24.45;12.68;;;;;;;11.58;76.02;100167.99;1705817;84;21111;-70
2021/01/07 07:26:40;;;;;;;27.30;13.38;;;;;;;11.59;76.07;100169.30;1708276;82;21187;-69
2021/01/07 07:29:13;;;;;;;29.48;13.00;;;;;;;11.61;76.14;100167.94;1708128;83;21143;-72
2021/01/07 07:31:44;;;;;;;24.72;12.50;;;;;;;11.62;76.16;100164.40;1706924;83;21167;-71
2021/01/07 07:34:13;;;;;;;24.87;11.97;;;;;;;11.68;76.05;100159.01;1708219;84;21147;-71
2021/01/07 07:36:42;;;;;;;28.87;13.43;;;;;;;11.69;76.09;100156.79;1707927;82;21184;-71
2021/01/07 07:39:10;;;;;;;23.45;12.53;;;;;;;11.73;75.97;100166.37;1736468;82;21156;-70
2021/01/07 07:41:45;;;;;;;28.05;13.72;;;;;;;11.70;76.10;100143.17;1652779;86;21555;-69
2021/01/07 07:44:14;;;;;;;23.32;13.78;;;;;;;11.67;76.27;100142.77;1684970;85;21340;-69
2021/01/07 07:46:43;;;;;;;19.48;11.30;;;;;;;11.79;76.04;100138.15;1687180;84;21147;-69
2021/01/07 07:49:11;;;;;;;22.62;11.70;;;;;;;11.82;75.97;100128.86;1686965;85;21325;-69
2021/01/07 07:51:40;;;;;;;26.25;13.55;;;;;;;11.89;75.65;100133.95;1690832;84;21152;-69
2021/01/07 07:54:10;;;;;;;23.52;13.32;;;;;;;11.85;75.80;100128.33;1687000;85;21227;-72
2021/01/07 07:56:38;;;;;;;24.55;13.25;;;;;;;11.84;75.87;100126.59;1687201;84;21186;-70
2021/01/07 07:59:10;;;;;;;20.90;12.10;;;;;;;11.93;75.68;100132.11;1701388;84;21606;-72
2021/01/07 08:01:49;;;;;;;20.43;11.15;;;;;;;11.88;75.98;100124.30;1686962;84;21372;-69
2021/01/07 08:04:26;;;;;;;30.68;15.78;;;;;;;11.93;75.91;100124.19;1686998;84;21186;-72
2021/01/07 08:06:53;;;;;;;28.23;14.47;;;;;;;12.01;75.81;100123.61;1687084;85;21163;-69
2021/01/07 08:09:21;;;;;;;26.42;12.93;;;;;;;12.05;75.81;100123.11;1702979;84;21149;-72
2021/01/07 08:11:54;;;;;;;24.47;13.38;;;;;;;12.13;75.64;100118.53;1715656;84;21640;-70
2021/01/07 08:14:26;;;;;;;29.70;14.68;;;;;;;12.19;75.42;100111.77;1716010;83;21595;-72
2021/01/07 08:16:58;;;;;;;24.98;12.73;;;;;;;12.23;75.31;100107.30;1714078;84;21284;-70
2021/01/07 08:22:06;;;;;;;24.32;12.53;;;;;;;12.28;75.41;100095.31;1853145;77;22123;-70
2021/01/07 08:24:34;;;;;;;23.45;13.18;;;;;;;12.26;75.37;100094.47;1823588;78;21296;-69
2021/01/07 08:27:16;;;;;;;24.10;11.83;;;;;;;12.32;75.13;100090.38;1789548;80;21138;-68
2021/01/07 08:29:47;;;;;;;18.62;11.12;;;;;;;12.31;75.06;100082.92;1762094;81;21272;-71
2021/01/07 08:32:18;;;;;;;23.30;12.28;;;;;;;12.32;74.96;100078.06;1762141;81;21148;-73
2021/01/07 08:34:46;;;;;;;22.75;12.23;;;;;;;12.35;74.94;100066.55;1761809;81;21233;-73
2021/01/07 08:37:19;;;;;;;23.05;12.30;;;;;;;12.33;74.94;100077.16;1789306;79;21138;-73
2021/01/07 08:39:47;;;;;;;29.20;15.78;;;;;;;12.34;74.93;100072.73;1820353;79;21647;-71
2021/01/07 08:42:15;;;;;;;33.95;17.07;;;;;;;12.26;75.29;100073.37;1820493;79;21600;-71
2021/01/07 08:44:42;;;;;;;35.40;20.08;;;;;;;12.25;75.36;100067.67;1740541;82;21146;-71
2021/01/07 08:47:24;;;;;;;51.25;24.32;;;;;;;12.28;75.14;100058.36;1741851;82;21153;-73
2021/01/07 08:50:19;;;;;;;28.83;18.15;;;;;;;12.43;74.84;100054.04;1820305;77;22594;-69
2021/01/07 08:52:58;;;;;;;29.48;16.02;;;;;;;12.38;74.79;100051.08;1765194;81;21549;-69
2021/01/07 08:55:47;;;;;;;29.92;16.07;;;;;;;12.39;74.82;100050.17;1743793;81;21167;-72
2021/01/07 08:58:25;;;;;;;34.83;19.80;;;;;;;12.38;74.76;100054.60;1762061;81;21147;-70
2021/01/07 09:00:54;;;;;;;34.75;20.05;;;;;;;12.37;74.77;100045.39;1762092;80;21570;-72
2021/01/07 09:03:22;;;;;;;30.55;18.00;;;;;;;12.34;74.66;100043.27;1761872;81;21182;-72
2021/01/07 09:05:51;;;;;;;36.38;20.70;;;;;;;12.38;74.53;100037.45;1750110;81;21968;-70
2021/01/07 09:08:22;;;;;;;37.08;22.82;;;;;;;12.32;74.69;100031.88;1707750;83;21621;-71
2021/01/07 09:10:50;;;;;;;34.20;18.92;;;;;;;12.37;74.52;100028.23;1713891;83;21190;-71
2021/01/07 09:16:12;;;;;;;31.60;16.48;;;;;;;12.30;74.72;100017.86;1805271;77;22205;-69
2021/01/07 09:18:39;;;;;;;31.55;16.12;;;;;;;12.26;74.75;100020.59;1762048;81;21146;-72
2021/01/07 09:21:17;;;;;;;23.00;13.60;;;;;;;12.23;74.67;100014.07;1746928;80;21605;-72
2021/01/07 09:23:47;;;;;;;28.83;12.75;;;;;;;12.20;74.69;100018.52;1726834;81;21598;-71
2021/01/07 09:26:30;;;;;;;24.07;13.62;;;;;;;12.15;74.71;100022.19;1699496;83;21574;-72
2021/01/07 09:28:58;;;;;;;22.67;11.33;;;;;;;12.16;74.61;100010.26;1696483;84;21300;-71
2021/01/07 09:31:26;;;;;;;19.27;9.80;;;;;;;12.17;74.61;100011.14;1702339;83;21217;-71
2021/01/07 09:33:53;;;;;;;19.82;11.33;;;;;;;12.19;74.37;100011.50;1674179;84;21606;-71
2021/01/07 09:36:25;;;;;;;14.78;9.15;;;;;;;12.26;74.06;100002.13;1728291;83;21288;-70
2021/01/07 09:38:52;;;;;;;16.02;9.33;;;;;;;12.18;74.22;99998.37;1720225;83;21545;-70
2021/01/07 09:41:20;;;;;;;16.05;9.58;;;;;;;12.11;74.36;99995.03;1690930;84;21182;-70
2021/01/07 09:43:47;;;;;;;19.10;9.23;;;;;;;12.11;74.37;99991.07;1700466;83;21573;-71
2021/01/07 09:46:19;;;;;;;18.02;8.38;;;;;;;12.10;74.30;99979.22;1713265;83;21180;-71
2021/01/07 09:48:47;;;;;;;16.25;9.43;;;;;;;12.03;74.44;99974.56;1728719;83;21170;-72
2021/01/07 09:51:15;;;;;;;11.78;7.87;;;;;;;11.98;74.49;99979.90;1725187;83;21599;-72
2021/01/07 09:53:43;;;;;;;18.30;8.73;;;;;;;11.97;74.25;99977.31;1696119;84;21182;-72
2021/01/07 09:56:10;;;;;;;19.12;8.43;;;;;;;11.99;73.81;99975.50;1696326;84;21170;-71
2021/01/07 09:58:38;;;;;;;11.88;6.62;;;;;;;12.02;73.56;99966.23;1726931;83;21161;-70
2021/01/07 10:01:06;;;;;;;10.18;5.12;;;;;;;11.87;73.24;99952.48;1728385;83;21172;-72
2021/01/07 10:03:34;;;;;;;10.50;6.65;;;;;;;11.98;73.07;99952.20;1699978;83;21175;-71
2021/01/07 10:06:01;;;;;;;11.05;6.10;;;;;;;11.98;72.85;99946.93;1704579;83;21600;-71
2021/01/07 10:08:29;;;;;;;11.28;5.50;;;;;;;12.02;73.00;99942.02;1704397;83;21186;-72
2021/01/07 10:10:57;;;;;;;9.20;4.90;;;;;;;11.99;72.62;99938.58;1714117;83;21518;-71
2021/01/07 10:13:25;;;;;;;9.68;5.42;;;;;;;12.03;72.62;99923.13;1696237;84;21166;-70
2021/01/07 10:15:52;;;;;;;12.30;6.22;;;;;;;12.09;72.63;99926.93;1702336;84;21170;-72
2021/01/07 10:18:20;;;;;;;11.53;5.83;;;;;;;12.08;72.59;99919.04;1748795;82;21181;-72
2021/01/07 10:20:49;;;;;;;12.13;6.92;;;;;;;12.05;72.71;99912.08;1746526;82;21115;-71
2021/01/07 10:23:17;;;;;;;12.70;6.28;;;;;;;12.06;72.60;99916.45;1748878;82;21167;-71
2021/01/07 10:25:45;;;;;;;11.43;6.28;;;;;;;12.01;72.47;99902.05;1711886;81;21138;-71
2021/01/07 10:28:13;;;;;;;12.80;6.65;;;;;;;12.02;72.57;99898.97;1760292;81;21572;-70
2021/01/07 10:30:42;;;;;;;11.53;5.03;;;;;;;11.95;72.50;99897.36;1745876;81;21143;-73
2021/01/07 10:33:10;;;;;;;14.83;6.22;;;;;;;11.95;71.95;99886.81;1748618;82;21150;-71
2021/01/07 10:35:38;;;;;;;10.08;4.80;;;;;;;11.94;72.16;99884.61;1748366;81;21215;-71
2021/01/07 10:38:05;;;;;;;9.68;5.25;;;;;;;12.02;71.99;99880.52;1748409;82;21724;-72
2021/01/07 10:40:33;;;;;;;9.68;4.83;;;;;;;12.03;71.89;99873.02;1726292;82;21547;-72
2021/01/07 10:43:01;;;;;;;9.35;4.20;;;;;;;12.05;71.75;99870.73;1712598;84;21207;-71
2021/01/07 10:45:28;;;;;;;9.25;3.20;;;;;;;12.08;71.82;99860.56;1712447;83;21151;-71
2021/01/07 10:47:58;;;;;;;5.10;3.72;;;;;;;12.11;71.73;99862.25;1710640;83;21168;-71
2021/01/07 10:50:28;;;;;;;5.20;3.30;;;;;;;12.17;71.80;99861.61;1688613;84;21182;-72
2021/01/07 10:53:31;;;;;;;5.50;2.22;;;;;;;12.24;71.15;99856.17;1688614;85;21203;-71
2021/01/07 10:56:04;;;;;;;4.12;2.20;;;;;;;12.19;71.11;99853.20;1688356;84;21151;-69
2021/01/07 10:59:11;;;;;;;6.67;3.80;;;;;;;12.18;71.13;99844.03;1684553;84;21185;-70
2021/01/07 11:02:07;;;;;;;5.70;2.95;;;;;;;12.14;70.98;99839.27;1717785;82;21182;-70
2021/01/07 11:04:55;;;;;;;5.85;2.67;;;;;;;12.15;71.21;99837.52;1723253;81;21728;-69
2021/01/07 11:07:33;;;;;;;4.92;2.60;;;;;;;12.19;70.97;99832.57;1763159;81;21135;-72
2021/01/07 11:10:06;;;;;;;7.92;3.45;;;;;;;12.19;70.61;99831.25;1748375;82;21204;-73
2021/01/07 11:12:46;;;;;;;10.08;4.00;;;;;;;12.16;70.58;99822.09;1748421;82;21571;-70
2021/01/07 11:15:16;;;;;;;8.10;4.05;;;;;;;12.15;70.72;99820.37;1751651;81;21138;-70
2021/01/07 11:17:49;;;;;;;8.70;4.42;;;;;;;12.10;70.93;99819.63;1749272;82;21154;-73
2021/01/07 11:20:16;;;;;;;7.65;4.08;;;;;;;12.00;71.25;99813.75;1756079;81;21154;-71
2021/01/07 11:22:44;;;;;;;10.10;5.55;;;;;;;12.04;71.29;99808.80;1745459;80;21261;-73
2021/01/07 11:25:12;;;;;;;11.33;5.80;;;;;;;12.00;71.57;99803.20;1787165;80;21563;-73
2021/01/07 11:27:40;;;;;;;12.30;5.15;;;;;;;12.12;71.37;99804.63;1663478;86;21716;-72
2021/01/07 11:30:10;;;;;;;11.22;7.08;;;;;;;12.06;71.69;99803.03;1726268;83;21207;-71